createdAt,value
2022-08-26T00:00:00.317Z,10.02
2022-08-26T00:01:35.076Z,9.88
2022-08-26T00:03:08.330Z,9.70
2022-08-26T00:04:42.191Z,9.55
2022-08-26T00:06:15.784Z,10.18
2022-08-26T00:07:53.979Z,9.90
2022-08-26T00:09:27.279Z,10.05
2022-08-26T00:11:00.251Z,10.10
2022-08-26T00:12:37.521Z,9.93
2022-08-26T00:14:10.932Z,10.13
2022-08-26T00:15:44.503Z,10.70
2022-08-26T00:17:18.840Z,10.27
2022-08-26T00:18:53.063Z,10.77
2022-08-26T00:20:28.822Z,10.65
2022-08-26T00:22:01.848Z,11.20
2022-08-26T00:23:35.201Z,11.27
2022-08-26T00:25:09.735Z,10.88
2022-08-26T00:26:43.762Z,11.18
2022-08-26T00:28:19.060Z,10.88
2022-08-26T00:29:54.594Z,10.40
2022-08-26T00:31:31.175Z,10.45
2022-08-26T00:33:06.326Z,10.93
2022-08-26T00:34:40.349Z,10.18
2022-08-26T00:36:20.301Z,10.80
2022-08-26T00:37:53.888Z,10.70
2022-08-26T00:39:26.896Z,10.57
2022-08-26T00:41:01.045Z,10.88
2022-08-26T00:42:34.019Z,11.73
2022-08-26T00:44:07.427Z,11.18
2022-08-26T00:45:46.288Z,11.02
2022-08-26T00:47:31.273Z,11.30
2022-08-26T00:49:14.746Z,11.65
2022-08-26T00:50:54.492Z,11.98
2022-08-26T00:52:28.049Z,12.02
2022-08-26T00:54:05.438Z,11.43
2022-08-26T00:55:42.106Z,10.70
2022-08-26T00:57:18.708Z,10.30
2022-08-26T00:58:52.721Z,9.77
2022-08-26T01:00:28.426Z,10.98
2022-08-26T01:02:02.579Z,10.00
2022-08-26T01:03:38.095Z,9.82
2022-08-26T01:05:11.913Z,9.98
2022-08-26T01:06:45.891Z,9.82
2022-08-26T01:08:18.869Z,10.60
2022-08-26T01:09:50.886Z,9.35
2022-08-26T01:11:24.052Z,9.98
2022-08-26T01:14:37.558Z,9.88
2022-08-26T01:16:14.091Z,9.70
2022-08-26T01:17:48.231Z,9.93
2022-08-26T01:19:27.755Z,10.45
2022-08-26T01:21:08.581Z,10.30
2022-08-26T01:22:52.271Z,10.18
2022-08-26T01:24:27.582Z,10.52
2022-08-26T01:26:05.944Z,9.98
2022-08-26T01:27:40.643Z,10.48
2022-08-26T01:29:17.836Z,10.15
2022-08-26T01:30:54.445Z,9.52
2022-08-26T01:32:28.835Z,10.10
2022-08-26T01:34:07.819Z,9.80
2022-08-26T01:35:44.134Z,10.48
2022-08-26T01:37:19.914Z,10.52
2022-08-26T01:38:55.735Z,10.68
2022-08-26T01:40:33.434Z,10.82
2022-08-26T01:42:10.281Z,11.13
2022-08-26T01:43:47.459Z,10.25
2022-08-26T01:45:25.671Z,10.65
2022-08-26T01:47:00.330Z,10.40
2022-08-26T01:48:35.358Z,10.63
2022-08-26T01:50:13.562Z,10.30
2022-08-26T01:52:01.043Z,10.23
2022-08-26T01:53:34.299Z,10.18
2022-08-26T01:56:43.309Z,10.18
2022-08-26T01:58:22.436Z,10.38
2022-08-26T01:59:58.681Z,10.43
2022-08-26T02:01:31.919Z,10.43
2022-08-26T02:04:57.114Z,9.70
2022-08-26T02:06:31.320Z,9.75
2022-08-26T02:08:05.226Z,9.75
2022-08-26T02:09:41.258Z,10.65
2022-08-26T02:11:18.356Z,10.43
2022-08-26T02:12:51.499Z,10.20
2022-08-26T02:14:28.820Z,10.98
2022-08-26T02:16:03.935Z,11.23
2022-08-26T02:17:41.610Z,10.30
2022-08-26T02:19:16.999Z,10.60
2022-08-26T02:20:51.627Z,10.60
2022-08-26T02:22:25.446Z,11.57
2022-08-26T02:23:58.387Z,11.15
2022-08-26T02:25:35.482Z,10.93
2022-08-26T02:27:10.054Z,10.73
2022-08-26T02:28:50.695Z,10.90
2022-08-26T02:30:26.498Z,10.73
2022-08-26T02:32:03.414Z,11.27
2022-08-26T02:33:36.821Z,11.50
2022-08-26T02:35:18.311Z,10.55
2022-08-26T02:36:53.445Z,10.68
2022-08-26T02:38:27.718Z,10.80
2022-08-26T02:41:32.864Z,10.20
2022-08-26T02:43:08.648Z,10.35
2022-08-26T02:44:41.878Z,10.45
2022-08-26T02:46:27.691Z,10.55
2022-08-26T02:48:09.214Z,11.10
2022-08-26T02:49:44.236Z,11.00
2022-08-26T02:51:17.573Z,10.98
2022-08-26T02:52:50.778Z,11.45
2022-08-26T02:54:24.237Z,11.85
2022-08-26T02:55:57.246Z,11.25
2022-08-26T02:57:32.847Z,10.52
2022-08-26T02:59:07.515Z,10.48
2022-08-26T03:00:52.799Z,10.30
2022-08-26T03:02:26.614Z,10.63
2022-08-26T03:04:01.354Z,10.77
2022-08-26T03:05:34.686Z,10.55
2022-08-26T03:07:07.124Z,10.93
2022-08-26T03:08:40.217Z,11.30
2022-08-26T03:11:48.007Z,10.35
2022-08-26T03:14:56.210Z,10.90
2022-08-26T03:16:32.461Z,11.65
2022-08-26T03:18:05.983Z,11.20
2022-08-26T03:19:40.190Z,11.00
2022-08-26T03:21:16.505Z,11.10
2022-08-26T03:22:53.295Z,11.40
2022-08-26T03:24:28.877Z,11.00
2022-08-26T03:26:02.477Z,12.52
2022-08-26T03:27:35.609Z,11.93
2022-08-26T03:30:59.411Z,11.82
2022-08-26T03:32:32.453Z,12.38
2022-08-26T03:34:05.837Z,11.43
2022-08-26T03:35:40.654Z,11.70
2022-08-26T03:37:13.693Z,11.50
2022-08-26T03:38:45.722Z,12.00
2022-08-26T03:40:20.308Z,13.05
2022-08-26T03:41:53.656Z,12.55
2022-08-26T03:43:27.583Z,13.00
2022-08-26T03:45:00.660Z,11.90
2022-08-26T03:46:35.413Z,11.48
2022-08-26T03:48:08.606Z,12.00
2022-08-26T03:51:18.398Z,11.32
2022-08-26T03:52:53.277Z,10.82
2022-08-26T03:54:27.669Z,10.65
2022-08-26T03:56:00.777Z,10.57
2022-08-26T03:59:07.654Z,10.38
2022-08-26T04:00:40.829Z,9.95
2022-08-26T04:02:15.597Z,10.15
2022-08-26T04:04:01.308Z,10.35
2022-08-26T04:05:34.285Z,10.63
2022-08-26T04:07:07.672Z,10.95
2022-08-26T04:08:41.181Z,11.25
2022-08-26T04:10:17.439Z,11.40
2022-08-26T04:11:53.372Z,10.77
2022-08-26T04:13:26.328Z,10.70
2022-08-26T04:14:59.301Z,11.27
2022-08-26T04:16:33.204Z,10.95
2022-08-26T04:18:07.896Z,10.45
2022-08-26T04:19:41.057Z,10.60
2022-08-26T04:22:48.502Z,10.38
2022-08-26T04:24:23.428Z,10.85
2022-08-26T04:25:56.457Z,10.93
2022-08-26T04:27:29.377Z,10.75
2022-08-26T04:29:02.519Z,11.23
2022-08-26T04:30:38.735Z,11.35
2022-08-26T04:32:12.042Z,10.70
2022-08-26T04:35:25.641Z,10.35
2022-08-26T04:36:59.924Z,10.30
2022-08-26T04:38:33.398Z,11.32
2022-08-26T04:40:10.083Z,10.57
2022-08-26T04:41:43.581Z,11.25
2022-08-26T04:43:16.544Z,11.30
2022-08-26T04:44:49.951Z,11.52
2022-08-26T04:46:24.269Z,11.65
2022-08-26T04:47:57.766Z,11.65
2022-08-26T04:49:35.260Z,12.32
2022-08-26T04:51:07.781Z,12.45
2022-08-26T04:52:40.885Z,11.70
2022-08-26T04:55:51.566Z,11.20
2022-08-26T04:57:28.443Z,11.70
2022-08-26T05:00:35.719Z,11.13
2022-08-26T05:02:08.917Z,10.50
2022-08-26T05:03:42.311Z,11.10
2022-08-26T05:06:52.488Z,11.27
2022-08-26T05:08:26.191Z,11.05
2022-08-26T05:10:00.774Z,10.43
2022-08-26T05:13:11.182Z,12.25
2022-08-26T05:14:46.416Z,11.75
2022-08-26T05:16:20.185Z,12.00
2022-08-26T05:17:53.541Z,11.32
2022-08-26T05:21:03.397Z,11.48
2022-08-26T05:22:37.443Z,11.30
2022-08-26T05:24:12.204Z,11.52
2022-08-26T05:25:47.254Z,11.73
2022-08-26T05:27:20.522Z,12.63
2022-08-26T05:28:54.765Z,11.80
2022-08-26T05:30:31.392Z,12.95
2022-08-26T05:32:05.197Z,12.57
2022-08-26T05:33:37.366Z,11.95
2022-08-26T05:35:14.500Z,12.35
2022-08-26T05:36:50.532Z,12.25
2022-08-26T05:38:23.557Z,12.43
2022-08-26T05:39:58.203Z,12.50
2022-08-26T05:41:36.606Z,13.02
2022-08-26T05:43:13.405Z,12.88
2022-08-26T05:44:55.400Z,13.05
2022-08-26T05:46:31.192Z,13.63
2022-08-26T05:48:07.941Z,12.48
2022-08-26T05:49:43.752Z,12.88
2022-08-26T05:51:26.101Z,13.05
2022-08-26T05:53:00.590Z,12.32
2022-08-26T05:54:34.975Z,13.63
2022-08-26T05:56:09.799Z,12.70
2022-08-26T05:57:43.088Z,12.55
2022-08-26T05:59:16.370Z,13.10
2022-08-26T06:01:03.277Z,13.48
2022-08-26T06:02:38.963Z,12.43
2022-08-26T06:04:12.739Z,13.10
2022-08-26T06:05:45.775Z,13.90
2022-08-26T06:07:38.725Z,13.52
2022-08-26T06:09:14.401Z,13.00
2022-08-26T06:10:52.585Z,13.32
2022-08-26T06:12:25.636Z,13.98
2022-08-26T06:14:03.808Z,12.85
2022-08-26T06:15:42.014Z,13.25
2022-08-26T06:17:15.150Z,12.32
2022-08-26T06:18:48.909Z,12.80
2022-08-26T06:20:21.887Z,12.88
2022-08-26T06:23:48.075Z,13.40
2022-08-26T06:25:39.870Z,13.07
2022-08-26T06:27:15.239Z,13.13
2022-08-26T06:28:48.464Z,13.90
2022-08-26T06:30:21.484Z,16.63
2022-08-26T06:31:58.062Z,13.88
2022-08-26T06:33:32.009Z,13.43
2022-08-26T06:35:06.198Z,12.57
2022-08-26T06:36:45.987Z,12.32
2022-08-26T06:38:19.379Z,12.40
2022-08-26T06:39:52.397Z,11.88
2022-08-26T06:41:28.121Z,12.00
2022-08-26T06:43:01.493Z,12.77
2022-08-26T06:44:34.578Z,12.60
2022-08-26T06:46:10.750Z,11.63
2022-08-26T06:47:44.851Z,13.73
2022-08-26T06:49:27.119Z,12.07
2022-08-26T06:51:06.977Z,11.90
2022-08-26T06:52:43.344Z,13.32
2022-08-26T06:54:16.382Z,13.15
2022-08-26T06:55:51.920Z,13.35
2022-08-26T06:57:26.399Z,13.38
2022-08-26T06:58:59.554Z,13.88
2022-08-26T07:02:07.085Z,12.63
2022-08-26T07:03:41.138Z,12.50
2022-08-26T07:05:15.119Z,12.60
2022-08-26T07:06:50.067Z,11.63
2022-08-26T07:08:25.526Z,12.00
2022-08-26T07:09:58.587Z,11.63
2022-08-26T07:13:07.944Z,11.55
2022-08-26T07:14:41.196Z,10.95
2022-08-26T07:16:21.928Z,11.70
2022-08-26T07:17:56.923Z,11.52
2022-08-26T07:21:06.925Z,10.80
2022-08-26T07:22:40.500Z,11.85
2022-08-26T07:24:15.707Z,11.98
2022-08-26T07:25:49.493Z,11.43
2022-08-26T07:27:22.601Z,11.85
2022-08-26T07:30:32.395Z,11.73
2022-08-26T07:32:05.871Z,12.35
2022-08-26T07:33:40.210Z,11.73
2022-08-26T07:35:14.077Z,11.25
2022-08-26T07:38:21.791Z,10.98
2022-08-26T07:39:54.878Z,11.10
2022-08-26T07:43:06.018Z,10.95
2022-08-26T07:46:18.519Z,9.50
2022-08-26T07:47:54.005Z,10.30
2022-08-26T07:51:01.239Z,10.80
2022-08-26T07:54:07.499Z,10.82
2022-08-26T07:55:40.603Z,10.38
2022-08-26T07:58:50.512Z,9.88
2022-08-26T08:00:27.943Z,10.77
2022-08-26T08:02:01.386Z,11.25
2022-08-26T08:03:34.706Z,11.30
2022-08-26T08:05:08.404Z,10.88
2022-08-26T08:06:41.815Z,9.95
2022-08-26T08:08:27.935Z,10.95
2022-08-26T08:10:04.608Z,11.30
2022-08-26T08:11:41.629Z,11.73
2022-08-26T08:13:16.709Z,10.38
2022-08-26T08:14:52.398Z,10.60
2022-08-26T08:16:28.337Z,11.13
2022-08-26T08:18:06.863Z,10.77
2022-08-26T08:19:48.951Z,10.20
2022-08-26T08:21:23.870Z,10.23
2022-08-26T08:22:57.934Z,9.98
2022-08-26T08:24:31.204Z,10.23
2022-08-26T08:26:05.445Z,9.50
2022-08-26T08:27:40.285Z,9.70
2022-08-26T08:29:13.798Z,9.23
2022-08-26T08:30:47.418Z,9.18
2022-08-26T08:32:22.290Z,9.45
2022-08-26T08:33:55.618Z,9.18
2022-08-26T08:35:28.703Z,8.70
2022-08-26T08:37:04.366Z,8.75
2022-08-26T08:38:40.347Z,8.82
2022-08-26T08:40:18.597Z,8.57
2022-08-26T08:42:06.390Z,8.73
2022-08-26T08:43:43.028Z,8.93
2022-08-26T08:45:21.937Z,9.05
2022-08-26T08:46:59.253Z,9.52
2022-08-26T08:48:38.324Z,7.95
2022-08-26T08:50:21.553Z,8.63
2022-08-26T08:51:59.664Z,9.15
2022-08-26T08:53:35.418Z,8.80
2022-08-26T08:55:11.843Z,8.27
2022-08-26T08:56:53.954Z,8.30
2022-08-26T08:58:42.356Z,8.13
2022-08-26T09:00:19.397Z,8.32
2022-08-26T09:02:03.282Z,7.50
2022-08-26T09:03:56.495Z,8.18
2022-08-26T09:05:34.757Z,8.30
2022-08-26T09:07:12.811Z,8.48
2022-08-26T09:08:50.132Z,7.88
2022-08-26T09:10:33.460Z,8.23
2022-08-26T09:12:13.927Z,7.20
2022-08-26T09:13:51.352Z,7.70
2022-08-26T09:15:30.560Z,8.60
2022-08-26T09:17:14.620Z,7.45
2022-08-26T09:19:03.933Z,8.07
2022-08-26T09:20:47.674Z,7.50
2022-08-26T09:22:33.280Z,7.65
2022-08-26T09:24:08.047Z,7.07
2022-08-26T09:25:50.516Z,8.15
2022-08-26T09:27:39.145Z,8.15
2022-08-26T09:29:22.480Z,7.53
2022-08-26T09:31:23.651Z,8.05
2022-08-26T09:33:02.731Z,9.13
2022-08-26T09:34:38.619Z,8.63
2022-08-26T09:36:24.800Z,8.55
2022-08-26T09:37:58.405Z,9.10
2022-08-26T09:39:37.700Z,8.38
2022-08-26T09:41:26.569Z,8.05
2022-08-26T09:43:22.333Z,8.23
2022-08-26T09:44:58.403Z,8.07
2022-08-26T09:46:33.132Z,8.48
2022-08-26T09:48:09.032Z,8.65
2022-08-26T09:49:46.867Z,7.95
2022-08-26T09:51:32.022Z,8.10
2022-08-26T09:53:15.031Z,8.15
2022-08-26T09:55:02.227Z,8.57
2022-08-26T09:56:38.736Z,8.15
2022-08-26T09:58:15.680Z,8.65
2022-08-26T09:59:49.434Z,8.93
2022-08-26T10:01:32.905Z,8.70
2022-08-26T10:04:42.165Z,9.23
2022-08-26T10:06:26.782Z,7.93
2022-08-26T10:08:01.715Z,8.65
2022-08-26T10:09:40.579Z,8.07
2022-08-26T10:11:20.445Z,8.15
2022-08-26T10:13:03.172Z,8.10
2022-08-26T10:14:49.054Z,8.77
2022-08-26T10:16:25.627Z,8.63
2022-08-26T10:18:09.573Z,8.18
2022-08-26T10:19:56.062Z,7.93
2022-08-26T10:21:36.897Z,9.05
2022-08-26T10:23:15.432Z,7.97
2022-08-26T10:24:54.941Z,8.38
2022-08-26T10:26:33.919Z,8.45
2022-08-26T10:28:13.020Z,8.35
2022-08-26T10:29:49.582Z,8.57
2022-08-26T10:31:30.378Z,9.07
2022-08-26T10:33:15.539Z,8.05
2022-08-26T10:34:52.249Z,8.32
2022-08-26T10:37:10.547Z,7.97
2022-08-26T10:38:44.357Z,8.07
2022-08-26T10:40:24.141Z,8.25
2022-08-26T10:42:01.361Z,8.13
2022-08-26T10:43:40.878Z,9.85
2022-08-26T10:45:17.064Z,8.07
2022-08-26T10:46:54.734Z,8.60
2022-08-26T10:48:36.049Z,8.13
2022-08-26T10:50:09.762Z,8.20
2022-08-26T10:51:53.387Z,7.53
2022-08-26T10:53:37.387Z,7.53
2022-08-26T10:55:25.605Z,7.75
2022-08-26T10:57:04.262Z,8.60
2022-08-26T10:58:53.118Z,7.60
2022-08-26T11:00:50.775Z,8.30
2022-08-26T11:02:35.129Z,7.80
2022-08-26T11:04:19.415Z,7.10
2022-08-26T11:06:21.516Z,6.95
2022-08-26T11:08:15.336Z,7.28
2022-08-26T11:09:49.731Z,7.60
2022-08-26T11:11:47.004Z,7.80
2022-08-26T11:13:20.127Z,7.50
2022-08-26T11:14:59.082Z,8.48
2022-08-26T11:16:42.924Z,8.70
2022-08-26T11:18:44.819Z,7.55
2022-08-26T11:20:35.131Z,7.57
2022-08-26T11:22:11.016Z,7.85
2022-08-26T11:23:50.723Z,8.40
2022-08-26T11:25:30.228Z,8.13
2022-08-26T11:27:05.816Z,7.15
2022-08-26T11:28:44.153Z,7.50
2022-08-26T11:30:40.405Z,8.63
2022-08-26T11:32:26.518Z,8.70
2022-08-26T11:34:00.851Z,7.88
2022-08-26T11:35:49.159Z,7.75
2022-08-26T11:37:25.592Z,7.75
2022-08-26T11:39:00.458Z,7.68
2022-08-26T11:40:38.476Z,8.07
2022-08-26T11:42:24.288Z,8.20
2022-08-26T11:44:02.299Z,7.75
2022-08-26T11:45:38.731Z,9.05
2022-08-26T11:47:15.990Z,8.27
2022-08-26T11:48:49.363Z,7.97
2022-08-26T11:50:26.335Z,8.30
2022-08-26T11:52:14.767Z,8.27
2022-08-26T11:53:47.991Z,8.40
2022-08-26T11:55:23.228Z,8.07
2022-08-26T11:56:57.493Z,8.23
2022-08-26T11:58:32.738Z,7.85
2022-08-26T12:00:08.415Z,7.85
2022-08-26T12:01:49.441Z,8.93
2022-08-26T12:03:26.925Z,8.95
2022-08-26T12:05:01.883Z,8.27
2022-08-26T12:06:43.361Z,7.70
2022-08-26T12:08:21.704Z,7.90
2022-08-26T12:09:58.049Z,7.57
2022-08-26T12:11:36.722Z,7.60
2022-08-26T12:13:17.560Z,7.57
2022-08-26T12:15:06.848Z,16.58
2022-08-26T12:16:41.261Z,7.57
2022-08-26T12:18:28.700Z,7.85
2022-08-26T12:20:03.144Z,8.02
2022-08-26T12:21:37.465Z,7.35
2022-08-26T12:23:11.229Z,7.75
2022-08-26T12:24:50.970Z,7.75
2022-08-26T12:26:27.651Z,7.10
2022-08-26T12:28:06.584Z,7.10
2022-08-26T12:29:39.682Z,6.95
2022-08-26T12:31:22.542Z,7.78
2022-08-26T12:33:22.729Z,7.82
2022-08-26T12:34:56.520Z,7.80
2022-08-26T12:36:33.758Z,7.72
2022-08-26T12:38:09.230Z,7.03
2022-08-26T12:39:44.361Z,6.65
2022-08-26T12:41:55.836Z,7.05
2022-08-26T12:43:40.350Z,7.40
2022-08-26T12:45:13.342Z,6.78
2022-08-26T12:46:49.863Z,6.70
2022-08-26T12:48:28.760Z,7.63
2022-08-26T12:50:05.951Z,6.95
2022-08-26T12:51:42.139Z,7.47
2022-08-26T12:53:23.034Z,6.30
2022-08-26T12:55:02.926Z,6.40
2022-08-26T12:56:39.496Z,6.60
2022-08-26T12:58:21.217Z,6.72
2022-08-26T12:59:54.366Z,7.07
2022-08-26T13:01:27.598Z,6.40
2022-08-26T13:03:02.565Z,6.90
2022-08-26T13:04:38.872Z,7.25
2022-08-26T13:06:15.679Z,7.13
2022-08-26T13:08:14.348Z,7.00
2022-08-26T13:09:47.663Z,7.50
2022-08-26T13:11:24.733Z,7.22
2022-08-26T13:12:57.707Z,6.85
2022-08-26T13:14:31.147Z,6.50
2022-08-26T13:16:04.506Z,6.97
2022-08-26T13:17:37.753Z,6.75
2022-08-26T13:19:14.474Z,7.30
2022-08-26T13:20:47.779Z,7.50
2022-08-26T13:22:24.226Z,7.25
2022-08-26T13:23:58.366Z,7.82
2022-08-26T13:25:31.579Z,6.72
2022-08-26T13:27:07.183Z,7.10
2022-08-26T13:28:40.809Z,7.45
2022-08-26T13:30:14.985Z,7.63
2022-08-26T13:31:48.882Z,7.72
2022-08-26T13:33:22.783Z,6.97
2022-08-26T13:34:58.664Z,8.23
2022-08-26T13:36:32.952Z,8.35
2022-08-26T13:38:08.954Z,7.03
2022-08-26T13:39:42.965Z,7.85
2022-08-26T13:41:17.139Z,7.18
2022-08-26T13:43:02.183Z,6.43
2022-08-26T13:44:35.908Z,6.90
2022-08-26T13:46:09.077Z,6.90
2022-08-26T13:47:42.453Z,6.80
2022-08-26T13:49:15.756Z,5.82
2022-08-26T13:50:50.689Z,5.97
2022-08-26T13:52:29.133Z,4.85
2022-08-26T13:54:05.077Z,5.82
2022-08-26T13:55:38.144Z,5.32
2022-08-26T13:57:11.207Z,5.13
2022-08-26T13:58:46.110Z,5.30
2022-08-26T14:00:20.409Z,5.13
2022-08-26T14:01:53.474Z,5.13
2022-08-26T14:03:26.714Z,5.00
2022-08-26T14:04:59.781Z,4.45
2022-08-26T14:06:34.257Z,4.30
2022-08-26T14:08:08.134Z,4.90
2022-08-26T14:09:41.565Z,4.70
2022-08-26T14:11:14.756Z,4.63
2022-08-26T14:12:48.092Z,4.72
2022-08-26T14:14:21.277Z,5.50
2022-08-26T14:15:54.746Z,5.43
2022-08-26T14:17:28.496Z,5.35
2022-08-26T14:19:05.994Z,6.40
2022-08-26T14:20:40.141Z,5.93
2022-08-26T14:22:16.218Z,7.45
2022-08-26T14:23:49.274Z,6.78
2022-08-26T14:25:25.252Z,6.28
2022-08-26T14:26:58.622Z,4.80
2022-08-26T14:28:31.699Z,4.85
2022-08-26T14:30:05.086Z,6.20
2022-08-26T14:31:39.306Z,7.45
2022-08-26T14:33:14.517Z,7.60
2022-08-26T14:34:47.777Z,6.47
2022-08-26T14:38:05.736Z,5.97
2022-08-26T14:39:38.775Z,5.60
2022-08-26T14:41:12.581Z,5.15
2022-08-26T14:42:52.681Z,5.57
2022-08-26T14:44:28.807Z,5.93
2022-08-26T14:46:02.439Z,6.65
2022-08-26T14:47:35.598Z,5.95
2022-08-26T14:50:43.987Z,6.30
2022-08-26T14:52:17.207Z,7.07
2022-08-26T14:55:43.494Z,6.20
2022-08-26T14:57:17.404Z,6.70
2022-08-26T14:58:49.542Z,6.80
2022-08-26T15:00:23.287Z,7.05
2022-08-26T15:01:57.411Z,6.47
2022-08-26T15:03:30.566Z,6.30
2022-08-26T15:05:04.542Z,7.07
2022-08-26T15:06:38.192Z,7.20
2022-08-26T15:08:11.279Z,6.95
2022-08-26T15:09:45.758Z,7.38
2022-08-26T15:11:19.099Z,7.00
2022-08-26T15:12:52.366Z,6.80
2022-08-26T15:16:03.221Z,7.20
2022-08-26T15:17:36.616Z,7.60
2022-08-26T15:19:09.637Z,8.10
2022-08-26T15:20:42.724Z,7.68
2022-08-26T15:22:15.749Z,7.60
2022-08-26T15:23:49.608Z,7.43
2022-08-26T15:25:24.314Z,9.25
2022-08-26T15:26:57.441Z,8.05
2022-08-26T15:28:30.796Z,7.22
2022-08-26T15:30:05.863Z,6.68
2022-08-26T15:31:39.438Z,6.30
2022-08-26T15:33:15.431Z,6.05
2022-08-26T15:34:49.986Z,6.65
2022-08-26T15:36:23.202Z,6.55
2022-08-26T15:39:29.801Z,5.78
2022-08-26T15:41:06.513Z,6.82
2022-08-26T15:42:40.049Z,6.50
2022-08-26T15:44:16.202Z,7.60
2022-08-26T15:45:49.300Z,7.60
2022-08-26T15:47:23.748Z,10.18
2022-08-26T15:48:56.937Z,9.45
2022-08-26T15:52:05.472Z,7.95
2022-08-26T15:53:38.685Z,7.63
2022-08-26T15:56:48.454Z,7.85
2022-08-26T15:58:21.734Z,7.57
2022-08-26T15:59:54.977Z,8.27
2022-08-26T16:03:01.317Z,9.10
2022-08-26T16:06:08.280Z,8.03
2022-08-26T16:07:43.055Z,8.85
2022-08-26T16:09:16.312Z,8.65
2022-08-26T16:12:25.377Z,8.63
2022-08-26T16:13:58.610Z,9.63
2022-08-26T16:17:06.377Z,8.48
2022-08-26T16:18:39.725Z,8.32
2022-08-26T16:20:13.116Z,8.52
2022-08-26T16:21:46.968Z,8.13
2022-08-26T16:23:20.807Z,8.60
2022-08-26T16:24:57.762Z,8.30
2022-08-26T16:26:34.012Z,8.80
2022-08-26T16:28:11.607Z,8.20
2022-08-26T16:29:44.896Z,8.55
2022-08-26T16:31:18.531Z,9.18
2022-08-26T16:32:51.707Z,9.20
2022-08-26T16:35:58.627Z,8.27
2022-08-26T16:37:33.019Z,7.25
2022-08-26T16:39:08.741Z,7.13
2022-08-26T16:40:42.245Z,7.35
2022-08-26T16:42:14.977Z,7.60
2022-08-26T16:43:49.751Z,7.30
2022-08-26T16:45:23.172Z,7.40
2022-08-26T16:46:58.723Z,7.55
2022-08-26T16:48:31.058Z,6.95
2022-08-26T16:50:06.551Z,8.60
2022-08-26T16:51:39.735Z,7.85
2022-08-26T16:54:52.043Z,7.10
2022-08-26T16:56:34.095Z,7.82
2022-08-26T16:58:07.781Z,8.32
2022-08-26T16:59:42.604Z,7.72
2022-08-26T17:01:16.174Z,7.90
2022-08-26T17:02:49.630Z,8.32
2022-08-26T17:04:23.080Z,8.43
2022-08-26T17:05:56.344Z,7.95
2022-08-26T17:07:29.332Z,8.82
2022-08-26T17:09:02.653Z,7.60
2022-08-26T17:10:36.387Z,7.43
2022-08-26T17:12:09.701Z,7.90
2022-08-26T17:15:18.026Z,8.10
2022-08-26T17:16:53.375Z,8.48
2022-08-26T17:18:29.307Z,7.85
2022-08-26T17:20:07.194Z,7.95
2022-08-26T17:21:41.381Z,7.22
2022-08-26T17:23:14.451Z,7.28
2022-08-26T17:24:49.103Z,7.68
2022-08-26T17:26:22.313Z,7.30
2022-08-26T17:31:05.798Z,7.10
2022-08-26T17:32:39.205Z,6.90
2022-08-26T17:34:12.535Z,8.35
2022-08-26T17:35:46.690Z,7.63
2022-08-26T17:37:19.994Z,6.85
2022-08-26T17:38:54.210Z,7.40
2022-08-26T17:40:30.692Z,7.95
2022-08-26T17:42:04.379Z,8.05
2022-08-26T17:43:38.429Z,8.15
2022-08-26T17:45:13.393Z,8.00
2022-08-26T17:46:48.355Z,7.72
2022-08-26T17:48:21.830Z,7.50
2022-08-26T17:49:55.694Z,7.97
2022-08-26T17:51:29.444Z,8.25
2022-08-26T17:53:02.995Z,7.65
2022-08-26T17:54:36.524Z,8.20
2022-08-26T17:56:11.523Z,8.32
2022-08-26T17:57:53.427Z,8.50
2022-08-26T17:59:30.459Z,8.75
2022-08-26T18:01:06.114Z,8.73
2022-08-26T18:02:41.966Z,8.70
2022-08-26T18:04:16.134Z,8.52
2022-08-26T18:05:51.074Z,9.30
2022-08-26T18:07:24.769Z,9.07
2022-08-26T18:08:58.467Z,10.00
2022-08-26T18:10:31.945Z,10.38
2022-08-26T18:12:06.614Z,9.88
2022-08-26T18:13:46.940Z,10.55
2022-08-26T18:15:21.390Z,10.38
2022-08-26T18:16:55.244Z,10.40
2022-08-26T18:18:30.267Z,10.48
2022-08-26T18:20:04.037Z,10.68
2022-08-26T18:21:37.998Z,10.82
2022-08-26T18:23:12.063Z,10.77
2022-08-26T18:24:58.680Z,10.77
2022-08-26T18:26:35.226Z,10.65
2022-08-26T18:28:08.838Z,11.02
2022-08-26T18:29:45.233Z,12.95
2022-08-26T18:31:19.663Z,12.10
2022-08-26T18:32:54.145Z,12.27
2022-08-26T18:34:29.441Z,12.25
2022-08-26T18:36:05.997Z,13.13
2022-08-26T18:37:39.734Z,12.68
2022-08-26T18:39:14.793Z,13.82
2022-08-26T18:40:47.291Z,11.85
2022-08-26T18:42:21.019Z,12.75
2022-08-26T18:43:55.032Z,12.10
2022-08-26T18:45:28.913Z,11.55
2022-08-26T18:47:02.223Z,12.95
2022-08-26T18:48:36.800Z,12.82
2022-08-26T18:50:12.432Z,12.85
2022-08-26T18:51:46.686Z,12.40
2022-08-26T18:53:20.486Z,13.40
2022-08-26T18:54:54.014Z,12.95
2022-08-26T18:56:27.856Z,14.48
2022-08-26T18:58:01.277Z,13.48
2022-08-26T18:59:34.757Z,12.20
2022-08-26T19:01:07.647Z,13.13
2022-08-26T19:02:41.313Z,13.15
2022-08-26T19:04:17.603Z,13.10
2022-08-26T19:05:52.377Z,13.65
2022-08-26T19:07:25.765Z,12.25
2022-08-26T19:08:59.602Z,12.68
2022-08-26T19:10:35.402Z,12.85
2022-08-26T19:12:09.698Z,11.95
2022-08-26T19:13:43.293Z,12.10
2022-08-26T19:15:16.847Z,12.48
2022-08-26T19:16:52.477Z,12.32
2022-08-26T19:18:25.914Z,13.48
2022-08-26T19:19:59.581Z,13.10
2022-08-26T19:21:36.380Z,12.32
2022-08-26T19:23:30.371Z,13.10
2022-08-26T19:25:05.498Z,11.07
2022-08-26T19:26:39.166Z,11.27
2022-08-26T19:28:12.680Z,11.50
2022-08-26T19:29:46.731Z,11.70
2022-08-26T19:31:20.317Z,11.55
2022-08-26T19:32:53.846Z,11.57
2022-08-26T19:34:27.879Z,11.90
2022-08-26T19:36:03.750Z,11.98
2022-08-26T19:37:41.050Z,11.85
2022-08-26T19:39:15.060Z,11.75
2022-08-26T19:40:48.525Z,12.02
2022-08-26T19:42:22.130Z,12.27
2022-08-26T19:43:55.447Z,12.43
2022-08-26T19:45:31.760Z,12.38
2022-08-26T19:48:38.661Z,12.77
2022-08-26T19:50:14.406Z,12.23
2022-08-26T19:51:47.609Z,12.70
2022-08-26T19:54:55.494Z,13.05
2022-08-26T19:56:29.606Z,11.82
2022-08-26T19:58:03.918Z,11.32
2022-08-26T19:59:37.438Z,10.88
2022-08-26T20:01:11.969Z,11.38
2022-08-26T20:02:45.838Z,11.13
2022-08-26T20:04:19.264Z,11.35
2022-08-26T20:05:52.683Z,11.27
2022-08-26T20:07:26.752Z,10.50
2022-08-26T20:09:01.640Z,10.95
2022-08-26T20:10:35.886Z,11.40
2022-08-26T20:12:09.922Z,11.65
2022-08-26T20:13:43.932Z,12.48
2022-08-26T20:15:17.284Z,12.77
2022-08-26T20:16:50.619Z,12.38
2022-08-26T20:18:41.333Z,11.65
2022-08-26T20:20:33.690Z,12.38
2022-08-26T20:22:07.512Z,12.65
2022-08-26T20:23:41.165Z,12.20
2022-08-26T20:25:16.046Z,12.52
2022-08-26T20:26:50.064Z,13.80
2022-08-26T20:28:23.423Z,12.20
2022-08-26T20:29:57.252Z,12.55
2022-08-26T20:31:31.097Z,12.30
2022-08-26T20:33:04.453Z,12.65
2022-08-26T20:34:38.637Z,13.80
2022-08-26T20:36:11.904Z,14.38
2022-08-26T20:37:45.012Z,14.57
2022-08-26T20:39:20.846Z,14.57
2022-08-26T20:40:56.322Z,17.15
2022-08-26T20:42:30.112Z,16.88
2022-08-26T20:44:02.414Z,14.90
2022-08-26T20:45:36.017Z,14.65
2022-08-26T20:47:09.701Z,14.38
2022-08-26T20:48:42.912Z,13.23
2022-08-26T20:51:50.814Z,11.75
2022-08-26T20:53:24.310Z,11.60
2022-08-26T20:54:59.287Z,11.68
2022-08-26T20:56:34.102Z,10.70
2022-08-26T20:58:07.296Z,10.75
2022-08-26T21:01:19.336Z,9.77
2022-08-26T21:02:53.005Z,9.50
2022-08-26T21:04:27.758Z,8.98
2022-08-26T21:06:00.256Z,8.65
2022-08-26T21:07:33.484Z,9.88
2022-08-26T21:10:40.385Z,9.60
2022-08-26T21:12:14.766Z,9.43
2022-08-26T21:14:04.508Z,9.00
2022-08-26T21:15:40.197Z,8.82
2022-08-26T21:17:13.581Z,9.35
2022-08-26T21:18:45.936Z,9.00
2022-08-26T21:20:19.075Z,9.73
2022-08-26T21:23:29.092Z,10.88
2022-08-26T21:25:02.513Z,10.50
2022-08-26T21:28:09.847Z,8.95
2022-08-26T21:29:42.873Z,8.90
2022-08-26T21:31:18.047Z,8.57
2022-08-26T21:32:51.163Z,8.95
2022-08-26T21:34:24.868Z,8.45
2022-08-26T21:35:57.959Z,8.48
2022-08-26T21:37:30.870Z,8.07
2022-08-26T21:39:07.000Z,7.72
2022-08-26T21:40:44.077Z,7.40
2022-08-26T21:43:53.554Z,7.35
2022-08-26T21:45:26.610Z,6.57
2022-08-26T21:46:58.631Z,6.65
2022-08-26T21:48:34.584Z,6.53
2022-08-26T21:50:08.670Z,6.22
2022-08-26T21:51:43.921Z,6.40
2022-08-26T21:53:17.222Z,7.05
2022-08-26T21:54:50.247Z,7.40
2022-08-26T21:56:24.144Z,7.00
2022-08-26T21:57:57.183Z,8.98
2022-08-26T21:59:31.563Z,6.80
2022-08-26T22:01:09.117Z,6.50
2022-08-26T22:02:42.220Z,6.45
2022-08-26T22:05:51.109Z,6.00
2022-08-26T22:07:24.170Z,6.22
2022-08-26T22:08:56.863Z,6.78
2022-08-26T22:10:29.846Z,9.27
2022-08-26T22:12:03.254Z,7.43
2022-08-26T22:13:38.617Z,7.15
2022-08-26T22:15:12.619Z,7.20
2022-08-26T22:16:50.642Z,6.53
2022-08-26T22:18:24.241Z,7.30
2022-08-26T22:21:30.873Z,6.25
2022-08-26T22:23:04.084Z,6.97
2022-08-26T22:26:12.950Z,6.43
2022-08-26T22:27:45.886Z,6.75